Time;durP1;ratioP1;P1;durP2;ratioP2;P2;SDS_P1;SDS_P2;PMS_P1;PMS_P2;Temp;Humidity;BMP_temperature;BMP_pressure;BME280_temperature;BME280_humidity;BME280_pressure;Samples;Min_cycle;Max_cycle;Signal;HPM_P1;HPM_P2
2023/05/18 00:02:05;;;;;;;10.90;3.83;;;11.10;64.90;;;;;;5069690;28;20482;-62
2023/05/18 00:04:40;;;;;;;12.97;4.30;;;11.10;64.90;;;;;;5071194;28;20557;-61
2023/05/18 00:07:15;;;;;;;7.13;3.60;;;11.00;65.00;;;;;;5070462;28;20559;-61
2023/05/18 00:09:48;;;;;;;8.60;4.70;;;11.00;65.00;;;;;;5067242;28;20482;-62
2023/05/18 00:12:35;;;;;;;8.67;3.60;;;10.90;65.00;;;;;;5071700;28;20443;-62
2023/05/18 00:15:20;;;;;;;7.90;4.00;;;10.90;65.10;;;;;;5073637;28;20454;-62
2023/05/18 00:17:59;;;;;;;13.93;4.10;;;10.90;65.20;;;;;;5067538;28;21027;-61
2023/05/18 00:20:33;;;;;;;8.00;3.43;;;10.90;65.30;;;;;;5065259;28;20476;-61
2023/05/18 00:23:15;;;;;;;10.50;4.00;;;10.80;65.30;;;;;;5067679;28;20987;-63
2023/05/18 00:25:46;;;;;;;10.60;3.73;;;10.80;65.40;;;;;;5068207;28;20474;-62
2023/05/18 00:28:16;;;;;;;16.03;8.00;;;10.80;65.40;;;;;;5072830;28;20451;-62
2023/05/18 00:30:59;;;;;;;17.80;8.80;;;10.80;65.40;;;;;;5069143;28;20833;-62
2023/05/18 00:33:37;;;;;;;16.60;6.53;;;10.80;65.40;;;;;;5069920;28;21233;-62
2023/05/18 00:36:09;;;;;;;15.20;5.80;;;10.80;65.40;;;;;;5081843;28;20554;-62
2023/05/18 00:38:44;;;;;;;11.47;4.90;;;10.80;65.50;;;;;;5067545;28;20494;-62
2023/05/18 00:41:18;;;;;;;16.87;5.87;;;10.80;65.50;;;;;;5068597;28;20469;-62
2023/05/18 00:43:50;;;;;;;12.17;5.50;;;10.80;65.60;;;;;;5060591;28;20470;-62
2023/05/18 00:46:25;;;;;;;9.03;4.30;;;10.80;65.70;;;;;;5068398;28;20761;-62
2023/05/18 00:49:05;;;;;;;7.30;4.40;;;10.80;65.70;;;;;;5066004;28;20461;-62
2023/05/18 00:51:36;;;;;;;9.80;5.10;;;10.80;65.70;;;;;;5063386;28;20550;-62
2023/05/18 00:54:15;;;;;;;12.70;6.10;;;10.80;65.70;;;;;;5065808;28;20446;-62
2023/05/18 00:56:52;;;;;;;10.87;4.10;;;10.80;65.60;;;;;;5069069;28;20482;-62
2023/05/18 00:59:25;;;;;;;9.73;3.60;;;10.80;65.40;;;;;;5071050;28;20474;-61
2023/05/18 01:02:04;;;;;;;10.13;3.87;;;10.70;65.30;;;;;;5066206;28;20559;-62
2023/05/18 01:04:36;;;;;;;12.93;4.30;;;10.60;65.40;;;;;;5068536;28;20556;-62
2023/05/18 01:07:11;;;;;;;7.97;3.77;;;10.50;65.60;;;;;;5067726;28;20462;-61
2023/05/18 01:09:45;;;;;;;10.23;4.10;;;10.50;65.70;;;;;;5067446;28;20796;-62
2023/05/18 01:12:29;;;;;;;11.03;4.43;;;10.40;65.70;;;;;;5068557;28;20543;-62
2023/05/18 01:15:08;;;;;;;9.60;3.63;;;10.40;65.80;;;;;;5067968;28;20453;-61
2023/05/18 01:17:59;;;;;;;16.00;5.73;;;10.40;65.80;;;;;;5072239;28;20553;-62
2023/05/18 01:20:36;;;;;;;15.03;7.70;;;10.40;65.80;;;;;;5073509;28;20988;-62
2023/05/18 01:23:51;;;;;;;16.43;5.90;;;10.40;65.80;;;;;;5072672;28;20454;-62
2023/05/18 01:26:31;;;;;;;22.67;9.57;;;10.40;65.90;;;;;;5073888;28;20469;-62
2023/05/18 01:29:10;;;;;;;21.43;9.43;;;10.30;65.90;;;;;;5075528;28;20764;-62
2023/05/18 01:31:54;;;;;;;17.33;6.60;;;10.30;65.80;;;;;;5075241;28;20488;-61
2023/05/18 01:34:32;;;;;;;17.10;6.30;;;10.20;65.90;;;;;;5074698;28;20527;-62
2023/05/18 01:37:05;;;;;;;18.90;9.90;;;10.20;66.00;;;;;;5073615;28;20453;-62
2023/05/18 01:39:34;;;;;;;17.87;7.10;;;10.20;66.00;;;;;;5076911;28;20563;-62
2023/05/18 01:42:15;;;;;;;12.47;6.30;;;10.20;66.00;;;;;;5074827;28;20523;-62
2023/05/18 01:45:03;;;;;;;11.83;5.23;;;10.20;66.00;;;;;;5074903;28;20449;-62
2023/05/18 01:47:35;;;;;;;11.70;4.83;;;10.20;66.10;;;;;;5075284;28;20456;-61
2023/05/18 01:50:12;;;;;;;8.37;4.20;;;10.20;66.10;;;;;;5073238;28;20453;-62
2023/05/18 01:52:49;;;;;;;13.40;4.60;;;10.20;66.10;;;;;;5073367;28;20566;-61
2023/05/18 01:55:24;;;;;;;10.97;4.73;;;10.20;66.20;;;;;;5073912;28;20452;-62
2023/05/18 01:58:03;;;;;;;13.23;4.53;;;10.20;66.30;;;;;;5073646;28;20453;-62
2023/05/18 02:00:35;;;;;;;7.30;3.47;;;10.20;66.20;;;;;;5073132;28;20461;-61
2023/05/18 02:03:14;;;;;;;15.17;3.50;;;10.10;66.00;;;;;;5073529;28;20478;-61
2023/05/18 02:05:47;;;;;;;10.83;4.10;;;10.00;66.00;;;;;;5073446;28;21004;-62
2023/05/18 02:08:34;;;;;;;9.03;4.07;;;10.00;66.00;;;;;;5073002;28;20469;-62
2023/05/18 02:11:05;;;;;;;7.63;4.00;;;9.90;66.10;;;;;;5072774;28;20562;-62
2023/05/18 02:13:41;;;;;;;10.37;4.40;;;9.90;66.30;;;;;;5072421;28;20544;-62
2023/05/18 02:16:18;;;;;;;16.87;7.63;;;9.90;66.30;;;;;;5072760;28;20453;-61
2023/05/18 02:18:55;;;;;;;13.37;6.03;;;9.80;66.40;;;;;;5072533;28;20513;-62
2023/05/18 02:21:26;;;;;;;14.87;5.33;;;9.80;66.30;;;;;;5072771;28;20573;-61
2023/05/18 02:23:56;;;;;;;14.20;6.50;;;9.80;66.30;;;;;;5074858;28;20472;-62
2023/05/18 02:26:36;;;;;;;12.93;4.87;;;9.70;66.30;;;;;;5074660;28;20467;-62
2023/05/18 02:29:17;;;;;;;7.83;3.70;;;9.70;66.40;;;;;;5073301;28;20453;-61
2023/05/18 02:31:46;;;;;;;6.77;3.63;;;9.70;66.50;;;;;;5069493;28;20515;-62
2023/05/18 02:34:23;;;;;;;13.67;3.63;;;9.70;66.50;;;;;;5070410;28;20557;-61
2023/05/18 02:37:12;;;;;;;6.73;3.60;;;9.70;66.50;;;;;;5071504;28;20520;-61
2023/05/18 02:39:45;;;;;;;8.60;4.10;;;9.70;66.50;;;;;;5069508;28;20465;-62
2023/05/18 02:42:20;;;;;;;8.73;3.73;;;9.60;66.60;;;;;;5064239;28;20466;-62
2023/05/18 02:45:01;;;;;;;9.70;4.23;;;9.60;66.70;;;;;;5070931;28;20460;-62
2023/05/18 02:47:34;;;;;;;9.53;4.50;;;9.70;66.80;;;;;;5071561;28;20473;-61
2023/05/18 02:50:11;;;;;;;8.43;4.00;;;9.70;66.80;;;;;;5071120;28;20454;-62
2023/05/18 02:52:52;;;;;;;8.97;3.93;;;9.60;66.70;;;;;;5068236;28;20461;-62
2023/05/18 02:55:27;;;;;;;12.53;4.67;;;9.60;66.60;;;;;;5068707;28;20454;-61
2023/05/18 02:58:13;;;;;;;7.53;3.80;;;9.50;66.60;;;;;;5067631;28;20459;-62
2023/05/18 03:01:25;;;;;;;8.00;4.40;;;9.50;66.70;;;;;;5058310;28;20988;-61
2023/05/18 03:04:05;;;;;;;12.83;4.30;;;9.40;66.80;;;;;;5068451;28;20461;-62
2023/05/18 03:07:01;;;;;;;7.93;4.43;;;9.40;66.80;;;;;;5069840;28;20453;-61
2023/05/18 03:09:33;;;;;;;9.10;4.13;;;9.40;66.90;;;;;;5084115;28;20468;-61
2023/05/18 03:12:05;;;;;;;9.90;4.27;;;9.40;67.00;;;;;;5084447;28;20454;-62
2023/05/18 03:14:36;;;;;;;11.93;4.57;;;9.50;67.00;;;;;;5069963;28;20551;-62
2023/05/18 03:17:10;;;;;;;9.20;4.10;;;9.50;67.00;;;;;;5068783;28;20492;-62
2023/05/18 03:19:41;;;;;;;9.33;4.10;;;9.50;67.00;;;;;;5067191;28;21004;-62
2023/05/18 03:22:34;;;;;;;9.27;4.43;;;9.50;67.00;;;;;;5066979;28;20477;-62
2023/05/18 03:25:15;;;;;;;10.13;3.83;;;9.50;67.00;;;;;;5069128;28;21046;-62
2023/05/18 03:27:50;;;;;;;7.83;3.40;;;9.50;67.00;;;;;;5064088;28;20989;-62
2023/05/18 03:30:26;;;;;;;9.13;4.63;;;9.50;67.00;;;;;;5065888;28;20462;-61
2023/05/18 03:33:07;;;;;;;10.47;4.37;;;9.50;67.10;;;;;;5068768;28;20490;-61
2023/05/18 03:35:41;;;;;;;11.17;4.33;;;9.50;67.00;;;;;;5064356;28;20473;-61
2023/05/18 03:38:19;;;;;;;10.43;4.77;;;9.50;67.00;;;;;;5067321;28;20514;-61
2023/05/18 03:41:02;;;;;;;6.43;3.67;;;9.50;67.00;;;;;;5064748;28;20486;-61
2023/05/18 03:43:37;;;;;;;8.00;4.10;;;9.50;67.00;;;;;;5065989;28;20464;-62
2023/05/18 03:46:13;;;;;;;11.83;3.63;;;9.50;67.00;;;;;;5067681;28;21102;-62
2023/05/18 03:48:52;;;;;;;8.83;3.87;;;9.50;67.10;;;;;;5067643;28;20929;-61
2023/05/18 03:51:32;;;;;;;11.63;4.37;;;9.50;67.00;;;;;;5068638;28;20446;-61
2023/05/18 03:54:11;;;;;;;10.67;4.97;;;9.50;67.10;;;;;;5066210;28;20445;-61
2023/05/18 03:56:42;;;;;;;8.47;4.63;;;9.50;67.10;;;;;;5069096;28;21277;-61
2023/05/18 03:59:20;;;;;;;8.90;4.10;;;9.50;67.20;;;;;;5064679;28;20466;-61
2023/05/18 04:01:56;;;;;;;14.63;4.20;;;9.40;67.20;;;;;;5068749;28;20559;-61
2023/05/18 04:04:34;;;;;;;7.97;3.63;;;9.40;67.20;;;;;;5067167;28;20552;-61
2023/05/18 04:07:12;;;;;;;7.10;4.10;;;9.40;67.30;;;;;;5068333;28;20581;-62
2023/05/18 04:09:46;;;;;;;5.67;3.50;;;9.40;67.30;;;;;;5075857;28;20466;-62
2023/05/18 04:12:18;;;;;;;10.70;3.93;;;9.40;67.40;;;;;;5068023;28;20459;-62
2023/05/18 04:14:55;;;;;;;9.45;4.07;;;9.40;67.50;;;;;;5069312;28;20453;-62
2023/05/18 04:17:28;;;;;;;9.80;3.90;;;9.40;67.50;;;;;;5067887;28;20211;-62
2023/05/18 04:20:17;;;;;;;8.20;3.77;;;9.40;67.60;;;;;;5069776;28;20905;-62
2023/05/18 04:22:57;;;;;;;12.83;3.30;;;9.50;67.50;;;;;;5066970;28;20585;-62
2023/05/18 04:25:29;;;;;;;8.80;4.10;;;9.50;67.50;;;;;;5069107;28;20543;-62
2023/05/18 04:28:09;;;;;;;7.90;3.53;;;9.50;67.70;;;;;;5069075;28;20466;-61
2023/05/18 04:30:43;;;;;;;8.37;3.70;;;9.60;67.70;;;;;;5067185;28;20477;-62
2023/05/18 04:33:22;;;;;;;8.40;3.77;;;9.70;67.70;;;;;;5067998;28;20494;-61
2023/05/18 04:36:03;;;;;;;10.17;3.70;;;9.70;67.70;;;;;;5066129;28;20461;-62
2023/05/18 04:38:40;;;;;;;9.37;3.83;;;9.80;67.80;;;;;;5068245;28;20453;-62
2023/05/18 04:41:12;;;;;;;7.97;4.20;;;9.90;67.90;;;;;;5067490;28;20476;-61
2023/05/18 04:43:43;;;;;;;7.63;3.50;;;10.00;67.90;;;;;;5067603;28;21083;-62
2023/05/18 04:46:15;;;;;;;9.73;4.67;;;10.10;68.00;;;;;;5067416;28;20455;-61
2023/05/18 04:48:51;;;;;;;8.90;4.07;;;10.20;68.10;;;;;;5059119;28;20841;-62
2023/05/18 04:51:29;;;;;;;11.43;3.97;;;10.40;68.10;;;;;;5065767;28;20474;-62
2023/05/18 04:54:05;;;;;;;8.83;4.13;;;10.50;68.00;;;;;;5060412;28;20457;-62
2023/05/18 04:56:37;;;;;;;11.00;4.50;;;10.60;68.10;;;;;;5065396;28;20461;-63
2023/05/18 04:59:09;;;;;;;9.53;4.57;;;10.80;68.10;;;;;;5068822;28;21071;-62
2023/05/18 05:01:56;;;;;;;10.20;4.20;;;11.00;68.00;;;;;;5067329;28;20485;-62
2023/05/18 05:04:29;;;;;;;7.77;3.90;;;11.20;68.00;;;;;;5067257;28;20448;-62
2023/05/18 05:07:11;;;;;;;13.60;3.93;;;11.40;67.90;;;;;;5067184;28;20467;-61
2023/05/18 05:09:48;;;;;;;7.97;4.07;;;11.50;67.80;;;;;;5067373;28;20495;-62
2023/05/18 05:12:20;;;;;;;7.80;4.00;;;11.70;67.70;;;;;;5063305;28;20452;-62
2023/05/18 05:14:52;;;;;;;11.67;3.27;;;11.90;67.60;;;;;;5070719;28;20544;-62
2023/05/18 05:17:26;;;;;;;8.23;3.60;;;12.00;67.60;;;;;;5067720;28;20542;-61
2023/05/18 05:20:05;;;;;;;10.30;3.40;;;12.20;67.80;;;;;;5066823;28;20487;-62
2023/05/18 05:22:39;;;;;;;12.47;3.70;;;12.50;67.90;;;;;;5066902;28;20496;-62
2023/05/18 05:25:20;;;;;;;17.43;4.37;;;13.20;67.10;;;;;;5066392;28;20465;-62
2023/05/18 05:27:51;;;;;;;9.17;3.97;;;13.80;66.00;;;;;;5069381;28;20460;-62
2023/05/18 05:30:32;;;;;;;23.77;5.90;;;14.60;64.70;;;;;;5067406;28;20484;-62
2023/05/18 05:33:05;;;;;;;15.03;4.30;;;15.40;63.60;;;;;;5068515;28;20457;-62
2023/05/18 05:35:39;;;;;;;10.33;3.93;;;15.90;62.30;;;;;;5069254;28;20464;-61
2023/05/18 05:38:15;;;;;;;11.13;3.30;;;15.70;61.50;;;;;;5066365;28;20522;-62
2023/05/18 05:40:44;;;;;;;12.97;4.30;;;15.10;60.90;;;;;;5070212;28;20542;-62
2023/05/18 05:43:17;;;;;;;10.13;3.83;;;14.70;62.00;;;;;;5065144;28;20488;-62
2023/05/18 05:45:57;;;;;;;10.30;3.33;;;14.60;62.60;;;;;;5067907;28;20511;-62
2023/05/18 05:48:30;;;;;;;8.67;3.07;;;14.90;62.70;;;;;;5064149;28;20870;-62
2023/05/18 05:51:01;;;;;;;5.77;3.33;;;15.30;62.20;;;;;;5073076;28;20790;-63
2023/05/18 05:53:38;;;;;;;12.07;3.50;;;15.60;62.00;;;;;;5068061;28;20469;-61
2023/05/18 05:56:18;;;;;;;8.40;3.30;;;15.90;61.50;;;;;;5065610;28;20499;-61
2023/05/18 05:58:57;;;;;;;8.33;2.83;;;16.20;60.80;;;;;;5053393;28;20544;-62
2023/05/18 06:01:29;;;;;;;11.30;4.10;;;16.40;60.50;;;;;;5064196;28;20538;-63
2023/05/18 06:04:05;;;;;;;9.80;3.23;;;16.60;60.80;;;;;;5076532;28;20926;-62
2023/05/18 06:06:47;;;;;;;9.27;3.57;;;17.20;60.30;;;;;;5067748;28;20488;-62
2023/05/18 06:09:25;;;;;;;13.80;3.57;;;17.70;59.10;;;;;;5074572;28;21468;-62
2023/05/18 06:11:59;;;;;;;11.70;3.63;;;17.90;58.00;;;;;;5081996;28;20459;-62
2023/05/18 06:14:30;;;;;;;10.17;3.47;;;17.80;57.20;;;;;;5071402;28;20918;-62
2023/05/18 06:17:03;;;;;;;8.80;3.20;;;17.20;56.30;;;;;;5070854;28;20559;-62
2023/05/18 06:19:44;;;;;;;8.37;3.93;;;16.40;56.40;;;;;;5069281;28;20476;-63
2023/05/18 06:22:19;;;;;;;12.13;3.97;;;15.60;57.00;;;;;;5072725;28;20844;-62
2023/05/18 06:25:37;;;;;;;12.30;3.23;;;14.70;57.60;;;;;;4993101;28;20482;-62
2023/05/18 06:31:11;;;;;;;8.40;3.00;;;13.70;59.10;;;;;;5073197;28;20473;-62
2023/05/18 06:33:49;;;;;;;13.30;4.10;;;13.40;59.70;;;;;;5070204;28;20480;-62
2023/05/18 06:36:28;;;;;;;11.80;3.77;;;13.10;60.10;;;;;;5072706;28;20981;-62
2023/05/18 06:39:04;;;;;;;11.33;3.20;;;13.00;60.40;;;;;;5073601;28;20551;-62
2023/05/18 06:41:43;;;;;;;16.97;3.80;;;12.80;60.70;;;;;;5068951;28;20489;-62
2023/05/18 06:44:29;;;;;;;8.60;3.00;;;12.70;61.00;;;;;;5069829;28;20515;-63
2023/05/18 06:47:25;;;;;;;8.23;3.50;;;12.60;61.30;;;;;;5071988;28;20475;-64
2023/05/18 06:49:56;;;;;;;8.50;3.60;;;12.60;61.60;;;;;;5075291;28;20457;-63
2023/05/18 06:52:29;;;;;;;11.00;4.00;;;12.50;61.90;;;;;;5061725;28;20452;-64
2023/05/18 06:55:00;;;;;;;9.47;3.87;;;12.50;61.90;;;;;;5064989;28;20454;-63
2023/05/18 06:57:39;;;;;;;12.20;3.80;;;12.40;62.00;;;;;;5084246;28;20473;-63
2023/05/18 07:00:17;;;;;;;13.10;4.10;;;12.40;62.20;;;;;;5070165;28;20479;-64
2023/05/18 07:02:57;;;;;;;7.77;3.23;;;12.40;62.50;;;;;;5063085;28;20503;-63
2023/05/18 07:05:32;;;;;;;9.33;3.83;;;12.30;62.70;;;;;;5064842;28;20470;-64
2023/05/18 07:08:08;;;;;;;13.70;4.30;;;12.40;62.70;;;;;;5069587;28;21009;-63
2023/05/18 07:10:39;;;;;;;13.27;3.87;;;12.50;62.70;;;;;;5070037;28;20469;-63
2023/05/18 07:13:15;;;;;;;11.00;4.10;;;12.60;62.70;;;;;;5067429;28;20873;-63
2023/05/18 07:15:55;;;;;;;11.80;3.57;;;12.60;62.80;;;;;;5068755;28;20515;-64
2023/05/18 07:18:26;;;;;;;16.80;3.60;;;12.60;62.90;;;;;;5070942;28;20459;-63
2023/05/18 07:21:05;;;;;;;10.60;3.67;;;12.60;63.00;;;;;;5070753;28;20534;-63
2023/05/18 07:23:36;;;;;;;12.00;3.57;;;12.70;63.20;;;;;;5066987;28;20552;-63
2023/05/18 07:26:10;;;;;;;12.30;5.37;;;12.70;63.20;;;;;;5066162;28;20466;-63
2023/05/18 07:28:50;;;;;;;8.67;3.67;;;12.80;63.20;;;;;;5064416;28;21237;-63
2023/05/18 07:31:23;;;;;;;12.77;4.00;;;12.70;63.50;;;;;;5061884;28;20480;-63
2023/05/18 07:33:57;;;;;;;16.90;4.93;;;12.80;63.40;;;;;;5057268;28;20461;-62
2023/05/18 07:36:28;;;;;;;8.83;3.20;;;12.70;63.50;;;;;;5065135;28;20548;-62
2023/05/18 07:41:40;;;;;;;14.57;5.20;;;12.90;63.60;;;;;;5066441;28;20480;-63
2023/05/18 07:44:19;;;;;;;16.53;5.70;;;13.00;63.70;;;;;;5067007;28;20981;-63
2023/05/18 07:46:59;;;;;;;13.93;6.40;;;13.00;63.70;;;;;;5068916;28;20446;-62
2023/05/18 07:49:31;;;;;;;9.53;3.33;;;13.10;63.50;;;;;;5068125;28;20547;-63
2023/05/18 07:52:20;;;;;;;10.93;3.30;;;13.10;63.40;;;;;;5069916;28;20522;-62
2023/05/18 07:54:54;;;;;;;13.70;3.90;;;13.20;63.40;;;;;;5070142;28;20469;-62
2023/05/18 07:57:28;;;;;;;13.43;2.93;;;13.30;63.30;;;;;;5065614;28;20544;-62
2023/05/18 08:00:03;;;;;;;9.90;3.57;;;13.30;63.30;;;;;;5072892;28;20472;-62
2023/05/18 08:02:51;;;;;;;16.97;3.87;;;13.40;63.30;;;;;;5068061;28;20776;-62
2023/05/18 08:05:26;;;;;;;21.20;4.40;;;13.50;63.40;;;;;;5069137;28;20458;-63
2023/05/18 08:08:04;;;;;;;13.73;3.87;;;13.50;63.20;;;;;;5069267;28;20449;-63
2023/05/18 08:10:46;;;;;;;10.93;3.47;;;13.60;62.90;;;;;;5067069;28;20848;-63
2023/05/18 08:13:21;;;;;;;10.10;3.70;;;13.60;62.80;;;;;;5072622;28;20927;-62
2023/05/18 08:15:57;;;;;;;11.13;3.37;;;13.60;62.70;;;;;;5070412;28;20448;-63
2023/05/18 08:18:47;;;;;;;9.50;3.57;;;13.70;62.70;;;;;;5070064;28;20456;-62
2023/05/18 08:21:27;;;;;;;15.17;7.10;;;13.70;62.70;;;;;;5069536;28;20902;-63
2023/05/18 08:24:02;;;;;;;14.13;4.70;;;13.70;62.50;;;;;;5066930;28;20509;-63
2023/05/18 08:26:35;;;;;;;13.47;4.47;;;13.70;62.60;;;;;;5068500;28;20467;-62
2023/05/18 08:29:08;;;;;;;13.20;3.53;;;13.80;62.50;;;;;;5067461;28;20472;-62
2023/05/18 08:31:50;;;;;;;13.90;3.73;;;13.80;62.30;;;;;;5068312;28;21041;-62
2023/05/18 08:34:30;;;;;;;12.53;3.87;;;13.90;62.30;;;;;;5067099;28;20460;-62
2023/05/18 08:37:04;;;;;;;16.17;4.83;;;14.00;62.20;;;;;;5069439;28;20754;-63
2023/05/18 08:39:39;;;;;;;11.03;4.30;;;14.10;62.10;;;;;;5066967;28;20466;-62
2023/05/18 08:42:22;;;;;;;15.73;3.70;;;14.10;62.00;;;;;;5060008;28;20925;-62
2023/05/18 08:45:12;;;;;;;12.13;4.60;;;14.20;61.70;;;;;;5065791;28;20509;-63
2023/05/18 08:47:47;;;;;;;12.20;4.43;;;14.20;61.70;;;;;;5063745;28;20960;-62
2023/05/18 08:50:20;;;;;;;14.03;4.50;;;14.30;61.70;;;;;;5065967;28;20471;-63
2023/05/18 08:53:01;;;;;;;19.53;4.70;;;14.30;61.70;;;;;;5066091;28;20660;-63
2023/05/18 08:55:36;;;;;;;15.73;3.10;;;14.30;61.70;;;;;;5066843;28;20464;-63
2023/05/18 08:58:17;;;;;;;11.13;3.50;;;14.40;61.70;;;;;;5066780;28;20506;-62
2023/05/18 09:00:53;;;;;;;12.43;2.70;;;14.60;61.50;;;;;;5067864;28;20468;-62
2023/05/18 09:03:28;;;;;;;12.53;3.60;;;14.60;61.30;;;;;;5067358;28;20470;-63
2023/05/18 09:06:02;;;;;;;12.83;3.60;;;14.70;61.20;;;;;;5068027;28;20789;-63
2023/05/18 09:08:43;;;;;;;10.37;3.17;;;14.80;61.10;;;;;;5067706;28;20510;-62
2023/05/18 09:11:16;;;;;;;12.40;3.63;;;14.80;61.00;;;;;;5068073;28;20467;-62
2023/05/18 09:13:49;;;;;;;14.23;3.17;;;14.90;61.10;;;;;;5069669;28;20456;-62
2023/05/18 09:16:29;;;;;;;14.77;4.47;;;14.90;61.10;;;;;;5070339;28;20451;-62
2023/05/18 09:19:13;;;;;;;12.03;2.93;;;15.00;61.10;;;;;;5068055;28;20440;-62
2023/05/18 09:21:47;;;;;;;14.10;3.70;;;15.20;60.90;;;;;;5068153;28;20467;-62
2023/05/18 09:24:29;;;;;;;8.93;2.77;;;15.20;60.60;;;;;;5068579;28;21212;-63
2023/05/18 09:27:05;;;;;;;12.20;3.90;;;15.30;60.50;;;;;;5063715;28;20468;-62
2023/05/18 09:29:57;;;;;;;7.80;2.90;;;15.40;60.30;;;;;;5068292;28;21012;-62
2023/05/18 09:32:31;;;;;;;9.10;2.90;;;15.40;60.00;;;;;;5067668;28;20490;-62
2023/05/18 09:35:10;;;;;;;10.70;2.97;;;15.40;59.90;;;;;;5071073;28;20458;-62
2023/05/18 09:37:42;;;;;;;12.50;4.07;;;15.50;59.70;;;;;;5070356;28;20796;-62
2023/05/18 09:40:15;;;;;;;13.63;3.00;;;15.50;59.60;;;;;;5071617;28;20464;-62
2023/05/18 09:42:47;;;;;;;9.57;2.30;;;15.50;59.40;;;;;;5068889;28;20485;-62
2023/05/18 09:45:27;;;;;;;9.67;2.80;;;15.50;59.30;;;;;;5072005;28;21240;-63
2023/05/18 09:47:59;;;;;;;10.10;3.13;;;15.50;59.20;;;;;;5074220;28;21191;-62
2023/05/18 09:50:39;;;;;;;10.50;3.17;;;15.50;58.80;;;;;;5070434;28;21050;-63
2023/05/18 09:53:11;;;;;;;15.83;3.17;;;15.40;58.60;;;;;;5072248;28;20708;-63
2023/05/18 09:55:58;;;;;;;11.20;3.43;;;15.50;58.70;;;;;;5071166;28;20551;-63
2023/05/18 09:58:35;;;;;;;10.03;2.53;;;15.50;58.60;;;;;;5069128;28;20469;-62
2023/05/18 10:01:13;;;;;;;11.73;2.90;;;15.60;58.40;;;;;;5069412;28;20468;-62
2023/05/18 10:03:48;;;;;;;14.67;3.77;;;15.70;58.50;;;;;;5065815;28;20482;-62
2023/05/18 10:06:31;;;;;;;10.73;2.90;;;15.70;58.40;;;;;;5071724;28;20454;-63
2023/05/18 10:09:11;;;;;;;10.80;3.60;;;15.80;58.00;;;;;;5065217;28;20544;-63
2023/05/18 10:11:45;;;;;;;9.90;2.90;;;15.80;57.80;;;;;;5069456;28;20535;-63
2023/05/18 10:14:29;;;;;;;7.80;3.03;;;15.80;57.60;;;;;;5068447;28;20462;-62
2023/05/18 10:17:01;;;;;;;9.50;2.60;;;15.70;57.50;;;;;;5071257;28;20459;-62
2023/05/18 10:19:48;;;;;;;8.77;2.90;;;15.80;57.50;;;;;;5070844;28;20530;-63
2023/05/18 10:22:25;;;;;;;13.17;2.90;;;15.90;57.20;;;;;;5067489;28;20483;-63
2023/05/18 10:25:02;;;;;;;8.30;3.03;;;16.00;56.80;;;;;;5071620;28;20504;-63
2023/05/18 10:27:38;;;;;;;10.50;3.10;;;16.00;56.50;;;;;;5067631;28;20854;-62
2023/05/18 10:30:16;;;;;;;10.40;3.17;;;16.00;56.40;;;;;;5070161;28;20459;-63
2023/05/18 10:32:54;;;;;;;10.27;2.90;;;16.00;55.80;;;;;;5070767;28;20460;-63
2023/05/18 10:35:27;;;;;;;8.13;2.73;;;16.00;55.70;;;;;;5068392;28;20913;-63
2023/05/18 10:38:05;;;;;;;15.07;3.40;;;16.10;55.70;;;;;;5069958;28;20469;-63
2023/05/18 10:40:36;;;;;;;7.60;2.60;;;16.10;55.70;;;;;;5067775;28;20630;-63
2023/05/18 10:43:22;;;;;;;10.00;3.37;;;16.20;55.90;;;;;;5070109;28;20913;-63
2023/05/18 10:45:58;;;;;;;13.07;2.93;;;16.30;55.90;;;;;;5067730;28;20475;-63
2023/05/18 10:48:30;;;;;;;9.50;3.20;;;16.40;55.80;;;;;;5069025;28;20948;-63
2023/05/18 10:51:04;;;;;;;11.60;3.57;;;16.50;55.30;;;;;;5068479;28;20543;-62
2023/05/18 10:53:38;;;;;;;10.30;3.00;;;16.50;55.20;;;;;;5065495;28;20457;-63
2023/05/18 10:56:07;;;;;;;12.20;3.63;;;16.50;54.90;;;;;;5070936;28;20460;-63
2023/05/18 10:58:44;;;;;;;10.43;3.20;;;16.60;54.70;;;;;;5069865;28;20458;-62
2023/05/18 11:01:15;;;;;;;11.50;3.40;;;16.70;54.80;;;;;;5069776;28;20466;-63
2023/05/18 11:03:49;;;;;;;12.23;3.07;;;16.70;54.80;;;;;;5067901;28;20458;-63
2023/05/18 11:06:26;;;;;;;15.70;3.90;;;16.80;54.80;;;;;;5067880;28;20946;-62
2023/05/18 11:09:07;;;;;;;8.87;3.00;;;16.90;54.50;;;;;;5067444;28;20452;-63
2023/05/18 11:12:00;;;;;;;11.30;3.13;;;16.90;54.50;;;;;;5065219;28;20457;-62
2023/05/18 11:14:35;;;;;;;12.57;3.00;;;16.90;54.40;;;;;;5068393;28;20462;-63
2023/05/18 11:17:24;;;;;;;9.60;2.80;;;16.90;54.30;;;;;;5063218;28;20556;-63
2023/05/18 11:20:19;;;;;;;9.20;2.63;;;16.90;54.40;;;;;;5068487;28;20481;-63
2023/05/18 11:22:53;;;;;;;11.23;2.60;;;17.00;54.30;;;;;;5065669;28;20520;-63
2023/05/18 11:25:55;;;;;;;8.20;2.30;;;17.00;54.00;;;;;;5068198;28;20995;-63
2023/05/18 11:28:42;;;;;;;12.70;2.80;;;17.00;53.70;;;;;;5060507;28;20551;-62
2023/05/18 11:31:22;;;;;;;10.43;3.10;;;17.00;53.60;;;;;;5071096;28;20989;-62
2023/05/18 11:33:56;;;;;;;10.57;2.50;;;17.10;53.50;;;;;;5069209;28;20844;-62
2023/05/18 11:36:28;;;;;;;10.77;3.10;;;17.10;53.40;;;;;;5067339;28;20560;-63
2023/05/18 11:39:06;;;;;;;7.43;2.40;;;17.10;53.30;;;;;;5069585;28;20455;-63
2023/05/18 11:42:01;;;;;;;10.47;3.07;;;17.10;53.30;;;;;;5066785;28;20954;-62
2023/05/18 11:44:34;;;;;;;10.20;3.10;;;17.10;53.10;;;;;;5068256;28;20448;-63
2023/05/18 11:47:10;;;;;;;6.80;2.60;;;17.10;53.30;;;;;;5066392;28;20483;-63
2023/05/18 11:49:52;;;;;;;10.00;3.20;;;17.20;53.10;;;;;;5069741;28;20481;-63
2023/05/18 11:52:25;;;;;;;12.50;3.27;;;17.20;53.10;;;;;;5067632;28;20454;-63
2023/05/18 11:54:56;;;;;;;10.27;2.90;;;17.20;52.90;;;;;;5063983;28;20470;-62
2023/05/18 11:57:48;;;;;;;12.77;3.60;;;17.20;52.80;;;;;;5069216;28;20458;-62
2023/05/18 12:00:22;;;;;;;11.70;3.37;;;17.20;52.80;;;;;;5064780;28;20454;-62
2023/05/18 12:02:59;;;;;;;12.67;3.00;;;17.20;52.70;;;;;;5070615;28;20457;-62
2023/05/18 12:05:39;;;;;;;11.30;3.00;;;17.20;52.80;;;;;;5068589;28;20526;-62
2023/05/18 12:08:12;;;;;;;10.37;3.03;;;17.20;52.80;;;;;;5070841;28;21001;-62
2023/05/18 12:10:41;;;;;;;10.07;2.30;;;17.20;52.70;;;;;;5069229;28;20442;-63
2023/05/18 12:13:22;;;;;;;11.23;3.17;;;17.20;53.00;;;;;;5064320;28;20462;-62
2023/05/18 12:15:56;;;;;;;11.97;3.30;;;17.30;52.90;;;;;;5068571;28;20469;-62
2023/05/18 12:18:33;;;;;;;11.37;3.30;;;17.30;52.90;;;;;;5068684;28;20484;-62
2023/05/18 12:21:15;;;;;;;9.40;4.77;;;17.30;52.70;;;;;;5069664;28;20506;-62
2023/05/18 12:23:57;;;;;;;8.93;2.57;;;17.30;52.70;;;;;;5068351;28;20468;-62
2023/05/18 12:26:33;;;;;;;8.70;2.30;;;17.30;52.60;;;;;;5069853;28;20477;-62
2023/05/18 12:29:24;;;;;;;16.30;4.13;;;17.40;52.60;;;;;;5067046;28;20465;-62
2023/05/18 12:31:53;;;;;;;9.27;2.53;;;17.40;52.50;;;;;;5065612;28;20485;-62
2023/05/18 12:34:32;;;;;;;8.63;2.67;;;17.40;52.30;;;;;;5066284;28;20457;-62
2023/05/18 12:37:06;;;;;;;11.43;2.90;;;17.50;52.50;;;;;;5070647;28;20527;-62
2023/05/18 12:39:36;;;;;;;11.50;3.30;;;17.50;52.40;;;;;;5069907;28;20474;-63
2023/05/18 12:42:15;;;;;;;7.40;3.00;;;17.50;52.40;;;;;;5069271;28;20482;-62
2023/05/18 12:44:53;;;;;;;12.03;2.60;;;17.60;52.20;;;;;;5065796;28;20560;-63
2023/05/18 12:47:32;;;;;;;13.37;3.10;;;17.60;52.10;;;;;;5066450;28;20541;-63
2023/05/18 12:50:07;;;;;;;11.73;3.40;;;17.70;51.90;;;;;;5068826;28;20444;-63
2023/05/18 12:52:43;;;;;;;10.13;2.47;;;17.70;51.90;;;;;;5068465;28;20483;-62
2023/05/18 12:55:25;;;;;;;10.53;3.17;;;17.70;52.00;;;;;;5066888;28;20458;-63
2023/05/18 12:58:07;;;;;;;8.10;2.43;;;17.70;51.70;;;;;;5067047;28;20879;-62
2023/05/18 13:00:48;;;;;;;11.43;3.20;;;17.70;51.70;;;;;;5068549;28;20466;-62
2023/05/18 13:03:20;;;;;;;9.93;2.47;;;17.70;51.60;;;;;;5067887;28;20446;-62
2023/05/18 13:06:06;;;;;;;8.10;2.97;;;17.70;51.60;;;;;;5067683;28;20502;-62
2023/05/18 13:08:37;;;;;;;9.77;3.00;;;17.70;51.70;;;;;;5067909;28;20469;-63
2023/05/18 13:11:11;;;;;;;11.43;3.43;;;17.80;51.50;;;;;;5066908;28;20845;-62
2023/05/18 13:14:02;;;;;;;10.63;2.77;;;17.80;51.30;;;;;;5066966;28;20458;-62
2023/05/18 13:16:48;;;;;;;8.40;3.03;;;17.90;51.20;;;;;;5063162;28;20455;-62
2023/05/18 13:19:22;;;;;;;8.97;2.70;;;17.90;51.20;;;;;;5066792;28;20458;-62
2023/05/18 13:21:59;;;;;;;8.70;3.27;;;18.00;51.20;;;;;;5065919;28;20468;-63
2023/05/18 13:24:30;;;;;;;14.13;3.40;;;18.00;50.90;;;;;;5064393;28;20486;-63
2023/05/18 13:27:05;;;;;;;11.37;3.30;;;18.10;50.90;;;;;;5071340;28;20501;-63
2023/05/18 13:29:39;;;;;;;10.70;3.10;;;18.10;51.00;;;;;;5067266;28;21026;-62
2023/05/18 13:32:15;;;;;;;8.80;2.80;;;18.20;50.80;;;;;;5069207;28;20478;-64
2023/05/18 13:37:32;;;;;;;12.90;2.80;;;18.20;50.80;;;;;;5068738;28;20500;-62
2023/05/18 13:40:10;;;;;;;8.77;2.90;;;18.20;50.70;;;;;;5067689;28;20926;-62
2023/05/18 13:42:47;;;;;;;7.40;2.30;;;18.10;50.50;;;;;;5066289;28;20824;-63
2023/05/18 13:45:25;;;;;;;10.80;3.47;;;18.10;50.70;;;;;;5068625;28;20476;-62